DIAP/ABJ METAR and TAF weather

Enter ICAO airport designator
Station Type Date Time Source
DIAP METAR 2022/06/26 07:00 UTC NOAA

DIAP 260700Z 30004KT 8000 FEW004 SCT011 BKN024 24/24 Q1012 TEMPO 4000 RA


Station Type Date Time Source
DIAP Decoded METAR 2022/06/26 07:00 UTC NOAA

Abidjan, Cote d'Ivoire (DIAP) 05-15N 003-56W 8M
Jun 26, 2022 - 03:00 AM EDT / 2022.06.26 0700 UTC
Wind: from the WNW (300 degrees) at 5 MPH (4 KT):0
Visibility: 4 mile(s):0
Sky conditions: mostly cloudy
Temperature: 75 F (24 C)
Dew Point: 75 F (24 C)
Relative Humidity: 100%
Pressure (altimeter): 29.88 in. Hg (1012 hPa)
ob: DIAP 260700Z 30004KT 8000 FEW004 SCT011 BKN024 24/24 Q1012 TEMPO 4000 RA
cycle: 7

Station Type Date Time Source
DIAP TAF 2022/06/26 06:51 UTC NOAA

TAF TAF DIAP 260532Z 2606/2712 23005KT 6000 -RA BKN010 OVC030 PROB40 2606/268 4000 RA
BECMG 2610/2611 NSW FEW012 PROB40
TEMPO 2616/2620 TS BKN012 FEW020CB BKN040

Example: see airport list